Big Bear Lake, CA (92315)

9:43 AM PST on December 04, 2016 (GMT -0800)
Big Bear Lake | | Change Station

Elev 6923 ft 34.24 °N, 116.90 °W | Updated 3 minutes ago

Clear
Clear
49.1 °F
Feels Like 49 °F
N
0.0
Wind Variable Wind from ESE

Today
High -- | Low -- °F
--% Chance of Precip.
Yesterday
High -- | Low -- °F
Precip. -- in
Pressure 30.25 in
Visibility 10.0 miles
Clouds Clear
Windchill 49 °F
Dew Point 21 °F
Humidity 33%
Rainfall 0.00 in
Snow Depth Not available.
6:38 AM 4:37 PM
Waxing Crescent, 24% visible
METAR KL35 041735Z AUTO 00000KT 10SM CLR 09/M13 A3025 RMK AO2
Pressure 30.25 in
Visibility 10.0 miles
Clouds Clear
Windchill 49 °F
Dew Point 21 °F
Humidity 33%
Rainfall 0.00 in
Snow Depth Not available.
6:38 AM 4:37 PM
Waxing Crescent, 24% visible
METAR KL35 041735Z AUTO 00000KT 10SM CLR 09/M13 A3025 RMK AO2

10-Day Weather Forecast

Almanac

Astronomy

Dec. 04, 2016 Rise Set
Actual Time
Civil Twilight
Nautical Twilight
Astronomical Twilight
Moon
Length of Visible Light
Length of Day
Tomorrow will be .
, % of the Moon is Illuminated

Today's Extremes

State Highs State Lows

Community

WunderPhotos

Upload Photos

1,955,635 photos uploaded!

WunderBlog® & News

Nearby

Air Quality

  Air Quality AQ Index Pollutant
Not available.

Snow Depth

Station Depth Elevation

Earthquake Activity

City Distance Mag. Time & Date
Minimum magnitude displayed is 2.5.

Coastal Water Temperatures

Place Temperature

Stations

Nearby Weather Stations

Station Location Temp. Windchill Dew Point Humidity Wind Precip. Elev Updated Type
                   

Watches & Warnings

There are currently no watches in effect.